createdAt,value
2023-01-29T00:00:23.674Z,70.25
2023-01-29T00:02:51.329Z,70.01
2023-01-29T00:05:27.785Z,69.88
2023-01-29T00:07:57.983Z,69.66
2023-01-29T00:10:26.706Z,69.88
2023-01-29T00:12:54.812Z,69.51
2023-01-29T00:15:22.525Z,70.05
2023-01-29T00:17:50.196Z,69.71
2023-01-29T00:20:18.747Z,69.54
2023-01-29T00:22:46.727Z,69.63
2023-01-29T00:25:15.697Z,69.67
2023-01-29T00:27:44.597Z,70.03
2023-01-29T00:30:15.013Z,69.39
2023-01-29T00:32:43.161Z,69.98
2023-01-29T00:35:11.411Z,69.89
2023-01-29T00:37:39.558Z,70.09
2023-01-29T00:40:08.207Z,69.95
2023-01-29T00:42:55.132Z,69.02
2023-01-29T00:45:22.900Z,69.35
2023-01-29T00:47:50.552Z,69.68
2023-01-29T00:50:18.815Z,69.65
2023-01-29T00:52:48.560Z,69.07
2023-01-29T00:55:16.421Z,69.77
2023-01-29T00:57:45.510Z,69.67
2023-01-29T01:00:16.994Z,69.50
2023-01-29T01:03:02.391Z,69.52
2023-01-29T01:05:30.246Z,69.21
2023-01-29T01:07:59.464Z,69.38
2023-01-29T01:10:28.298Z,69.20
2023-01-29T01:12:59.411Z,69.47
2023-01-29T01:17:55.868Z,69.48
2023-01-29T01:20:24.009Z,69.66
2023-01-29T01:22:54.012Z,69.67
2023-01-29T01:25:21.860Z,69.98
2023-01-29T01:27:53.597Z,69.67
2023-01-29T01:30:21.659Z,70.05
2023-01-29T01:32:49.307Z,69.95
2023-01-29T01:35:18.901Z,70.02
2023-01-29T01:37:46.533Z,70.13
2023-01-29T01:40:18.392Z,70.55
2023-01-29T01:42:48.564Z,70.73
2023-01-29T01:45:21.358Z,70.96
2023-01-29T01:47:52.382Z,71.46
2023-01-29T01:50:25.340Z,71.30
2023-01-29T01:52:56.345Z,71.49
2023-01-29T01:55:29.995Z,72.08
2023-01-29T01:58:04.307Z,72.07
2023-01-29T02:00:35.535Z,72.44
2023-01-29T02:03:24.696Z,72.64
2023-01-29T02:06:13.584Z,72.23
2023-01-29T02:09:05.527Z,72.03
2023-01-29T02:11:37.109Z,72.66
2023-01-29T02:14:04.730Z,72.06
2023-01-29T02:16:34.901Z,72.49
2023-01-29T02:19:06.201Z,72.01
2023-01-29T02:22:05.063Z,72.50
2023-01-29T02:25:00.429Z,72.10
2023-01-29T02:27:39.773Z,72.58
2023-01-29T02:30:18.281Z,72.36
2023-01-29T02:32:58.297Z,72.31
2023-01-29T02:35:32.082Z,72.12
2023-01-29T02:38:13.760Z,72.07
2023-01-29T02:40:46.511Z,71.80
2023-01-29T02:43:28.668Z,72.05
2023-01-29T02:46:03.916Z,71.73
2023-01-29T02:48:40.096Z,71.43
2023-01-29T02:51:12.193Z,71.34
2023-01-29T02:53:50.318Z,71.06
2023-01-29T02:56:31.446Z,71.33
2023-01-29T02:59:06.340Z,71.49
2023-01-29T03:01:41.726Z,71.32
2023-01-29T03:04:15.063Z,71.16
2023-01-29T03:06:53.106Z,71.20
2023-01-29T03:09:27.757Z,70.83
2023-01-29T03:12:19.869Z,70.41
2023-01-29T03:15:10.095Z,71.08
2023-01-29T03:17:46.371Z,70.49
2023-01-29T03:20:18.592Z,70.29
2023-01-29T03:22:53.661Z,70.54
2023-01-29T03:25:43.173Z,70.66
2023-01-29T03:28:31.393Z,70.79
2023-01-29T03:31:21.569Z,70.06
2023-01-29T03:34:04.200Z,70.30
2023-01-29T03:36:38.039Z,70.21
2023-01-29T03:39:06.738Z,70.42
2023-01-29T03:41:39.342Z,70.68
2023-01-29T03:44:13.766Z,70.34
2023-01-29T03:46:51.520Z,70.90
2023-01-29T03:49:30.896Z,70.74
2023-01-29T03:52:06.076Z,70.84
2023-01-29T03:54:45.636Z,70.72
2023-01-29T03:57:18.262Z,71.01
2023-01-29T03:59:52.929Z,70.99
2023-01-29T04:02:52.642Z,70.84
2023-01-29T04:05:29.005Z,70.95
2023-01-29T04:08:17.882Z,70.64
2023-01-29T04:10:52.041Z,70.99
2023-01-29T04:13:21.349Z,70.90
2023-01-29T04:15:56.791Z,71.00
2023-01-29T04:18:45.241Z,70.81
2023-01-29T04:21:14.636Z,71.15
2023-01-29T04:23:42.560Z,70.94
2023-01-29T04:26:38.835Z,71.02
2023-01-29T04:29:23.827Z,71.36
2023-01-29T04:32:04.583Z,71.03
2023-01-29T04:34:42.614Z,70.99
2023-01-29T04:37:16.591Z,71.02
2023-01-29T04:39:50.095Z,70.82
2023-01-29T04:42:31.247Z,71.00
2023-01-29T04:45:04.483Z,70.56
2023-01-29T04:47:41.481Z,70.74
2023-01-29T04:50:16.643Z,71.39
2023-01-29T04:52:54.437Z,70.77
2023-01-29T04:55:30.860Z,70.65
2023-01-29T04:58:07.613Z,70.70
2023-01-29T05:00:39.447Z,70.96
2023-01-29T05:03:11.520Z,70.71
2023-01-29T05:05:42.715Z,71.05
2023-01-29T05:08:18.178Z,71.18
2023-01-29T05:10:48.241Z,71.38
2023-01-29T05:13:16.867Z,71.31
2023-01-29T05:15:48.760Z,71.25
2023-01-29T05:18:16.518Z,71.06
2023-01-29T05:20:45.444Z,71.20
2023-01-29T05:23:19.268Z,71.36
2023-01-29T05:25:48.050Z,71.05
2023-01-29T05:28:17.280Z,71.77
2023-01-29T05:30:46.976Z,71.99
2023-01-29T05:33:16.761Z,71.88
2023-01-29T05:35:44.464Z,71.87
2023-01-29T05:38:12.512Z,71.89
2023-01-29T05:40:42.117Z,72.39
2023-01-29T05:43:18.677Z,72.10
2023-01-29T05:45:53.214Z,72.81
2023-01-29T05:48:20.867Z,73.34
2023-01-29T05:50:48.609Z,74.56
2023-01-29T05:53:16.217Z,74.80
2023-01-29T05:55:46.800Z,74.62
2023-01-29T05:58:15.051Z,74.64
2023-01-29T06:00:43.357Z,74.26
2023-01-29T06:03:11.043Z,74.47
2023-01-29T06:05:39.123Z,74.71
2023-01-29T06:08:08.013Z,74.61
2023-01-29T06:10:35.742Z,74.66
2023-01-29T06:13:05.093Z,74.48
2023-01-29T06:15:32.700Z,75.05
2023-01-29T06:18:00.357Z,74.87
2023-01-29T06:20:29.634Z,74.50
2023-01-29T06:22:57.312Z,74.28
2023-01-29T06:25:26.553Z,74.07
2023-01-29T06:27:54.181Z,74.29
2023-01-29T06:30:25.159Z,73.80
2023-01-29T06:32:56.916Z,74.08
2023-01-29T06:35:24.578Z,73.83
2023-01-29T06:37:52.198Z,73.97
2023-01-29T06:40:20.176Z,73.90
2023-01-29T06:42:47.808Z,73.57
2023-01-29T06:45:15.785Z,73.69
2023-01-29T06:47:44.821Z,73.45
2023-01-29T06:50:13.037Z,73.76
2023-01-29T06:52:40.636Z,73.64
2023-01-29T06:55:09.246Z,73.72
2023-01-29T06:57:37.076Z,73.33
2023-01-29T07:00:06.294Z,73.64
2023-01-29T07:02:33.972Z,73.35
2023-01-29T07:05:02.959Z,73.16
2023-01-29T07:07:30.668Z,73.25
2023-01-29T07:09:58.295Z,73.39
2023-01-29T07:12:25.994Z,73.23
2023-01-29T07:14:53.617Z,73.24
2023-01-29T07:17:21.615Z,73.61
2023-01-29T07:19:49.217Z,73.26
2023-01-29T07:22:18.192Z,73.36
2023-01-29T07:24:45.867Z,73.55
2023-01-29T07:27:13.590Z,73.53
2023-01-29T07:29:41.228Z,73.09
2023-01-29T07:32:08.916Z,73.32
2023-01-29T07:34:36.533Z,73.47
2023-01-29T07:37:05.972Z,74.11
2023-01-29T07:39:34.917Z,73.80
2023-01-29T07:42:02.808Z,73.71
2023-01-29T07:44:30.429Z,74.16
2023-01-29T07:46:58.084Z,73.71
2023-01-29T07:49:25.671Z,73.45
2023-01-29T07:51:53.268Z,73.16
2023-01-29T07:54:21.064Z,73.41
2023-01-29T07:56:50.091Z,73.14
2023-01-29T07:59:17.724Z,73.15
2023-01-29T08:01:45.444Z,72.35
2023-01-29T08:04:13.073Z,72.58
2023-01-29T08:06:40.728Z,72.31
2023-01-29T08:09:08.787Z,72.49
2023-01-29T08:11:36.425Z,72.54
2023-01-29T08:14:05.368Z,71.56
2023-01-29T08:16:33.100Z,71.67
2023-01-29T08:19:02.271Z,70.95
2023-01-29T08:21:29.912Z,70.66
2023-01-29T08:23:57.756Z,70.88
2023-01-29T08:26:26.192Z,70.44
2023-01-29T08:28:54.194Z,70.51
2023-01-29T08:31:23.212Z,70.79
2023-01-29T08:33:51.008Z,70.16
2023-01-29T08:36:18.671Z,69.97
2023-01-29T08:38:46.393Z,70.09
2023-01-29T08:41:14.025Z,70.04
2023-01-29T08:43:41.662Z,70.21
2023-01-29T08:46:09.636Z,70.20
2023-01-29T08:48:38.759Z,70.13
2023-01-29T08:51:06.996Z,70.21
2023-01-29T08:53:34.605Z,69.92
2023-01-29T08:56:02.615Z,70.25
2023-01-29T08:58:30.240Z,70.13
2023-01-29T09:00:58.031Z,69.77
2023-01-29T09:03:25.767Z,69.23
2023-01-29T09:05:54.860Z,68.96
2023-01-29T09:08:22.687Z,68.64
2023-01-29T09:10:50.364Z,68.61
2023-01-29T09:13:18.015Z,67.32
2023-01-29T09:15:45.636Z,67.88
2023-01-29T09:18:13.327Z,67.39
2023-01-29T09:20:40.959Z,67.75
2023-01-29T09:23:11.287Z,67.45
2023-01-29T09:25:39.427Z,67.40
2023-01-29T09:28:07.218Z,67.64
2023-01-29T09:30:37.673Z,67.67
2023-01-29T09:33:05.739Z,67.71
2023-01-29T09:35:33.559Z,67.63
2023-01-29T09:38:01.412Z,67.63
2023-01-29T09:40:35.865Z,66.93
2023-01-29T09:43:07.705Z,67.04
2023-01-29T09:45:37.176Z,66.52
2023-01-29T09:48:06.683Z,65.40
2023-01-29T09:50:39.956Z,65.04
2023-01-29T09:53:17.827Z,65.89
2023-01-29T09:55:51.520Z,65.31
2023-01-29T09:58:23.834Z,65.78
2023-01-29T10:00:58.232Z,65.24
2023-01-29T10:03:56.151Z,65.19
2023-01-29T10:06:33.193Z,65.55
2023-01-29T10:09:48.832Z,64.63
2023-01-29T10:12:23.364Z,64.95
2023-01-29T10:15:01.414Z,64.99
2023-01-29T10:17:49.531Z,64.38
2023-01-29T10:20:44.144Z,64.25
2023-01-29T10:23:20.508Z,63.91
2023-01-29T10:25:49.092Z,63.97
2023-01-29T10:28:21.079Z,63.43
2023-01-29T10:30:51.237Z,63.26
2023-01-29T10:33:25.934Z,62.98
2023-01-29T10:35:58.132Z,62.30
2023-01-29T10:38:36.235Z,62.17
2023-01-29T10:41:18.957Z,62.55
2023-01-29T10:43:55.815Z,62.70
2023-01-29T10:46:32.866Z,63.17
2023-01-29T10:49:09.615Z,63.63
2023-01-29T10:51:51.610Z,63.42
2023-01-29T10:54:38.302Z,63.69
2023-01-29T10:57:15.957Z,63.13
2023-01-29T11:00:12.779Z,63.41
2023-01-29T11:02:45.244Z,63.94
2023-01-29T11:05:21.578Z,63.91
2023-01-29T11:07:56.118Z,63.98
2023-01-29T11:10:25.748Z,63.67
2023-01-29T11:12:54.442Z,63.54
2023-01-29T11:15:27.540Z,64.12
2023-01-29T11:18:03.402Z,63.68
2023-01-29T11:20:32.778Z,64.31
2023-01-29T11:23:00.495Z,64.12
2023-01-29T11:25:29.722Z,64.65
2023-01-29T11:28:00.492Z,64.11
2023-01-29T11:30:31.729Z,64.58
2023-01-29T11:33:08.547Z,64.68
2023-01-29T11:35:37.391Z,64.59
2023-01-29T11:38:10.435Z,64.58
2023-01-29T11:40:40.726Z,64.73
2023-01-29T11:43:20.832Z,63.95
2023-01-29T11:45:51.487Z,64.80
2023-01-29T11:48:21.693Z,64.60
2023-01-29T11:50:55.263Z,64.50
2023-01-29T11:53:27.973Z,64.40
2023-01-29T11:55:56.816Z,64.30
2023-01-29T11:58:29.272Z,64.56
2023-01-29T12:01:00.836Z,64.74
2023-01-29T12:03:36.197Z,64.18
2023-01-29T12:06:06.835Z,64.60
2023-01-29T12:08:38.153Z,64.32
2023-01-29T12:11:10.511Z,64.84
2023-01-29T12:13:39.036Z,64.44
2023-01-29T12:16:16.629Z,64.26
2023-01-29T12:18:47.849Z,64.05
2023-01-29T12:21:21.217Z,63.99
2023-01-29T12:23:55.991Z,64.24
2023-01-29T12:26:29.272Z,64.17
2023-01-29T12:29:12.909Z,64.18
2023-01-29T12:31:47.592Z,64.67
2023-01-29T12:34:21.394Z,63.82
2023-01-29T12:36:53.824Z,64.67
2023-01-29T12:39:22.212Z,64.67
2023-01-29T12:41:57.876Z,64.39
2023-01-29T12:44:34.424Z,64.12
2023-01-29T12:47:07.900Z,64.18
2023-01-29T12:49:40.529Z,64.22
2023-01-29T12:52:13.399Z,64.23
2023-01-29T12:54:45.930Z,64.31
2023-01-29T12:57:22.462Z,64.17
2023-01-29T12:59:56.502Z,63.54
2023-01-29T13:02:33.561Z,63.34
2023-01-29T13:05:06.376Z,64.40
2023-01-29T13:07:39.956Z,63.82
2023-01-29T13:10:14.888Z,64.16
2023-01-29T13:12:53.367Z,63.71
2023-01-29T13:15:25.610Z,64.25
2023-01-29T13:18:02.005Z,63.79
2023-01-29T13:20:31.025Z,63.41
2023-01-29T13:23:05.525Z,64.92
2023-01-29T13:25:33.138Z,64.59
2023-01-29T13:28:01.495Z,64.45
2023-01-29T13:30:31.644Z,64.39
2023-01-29T13:33:10.257Z,64.56
2023-01-29T13:35:42.111Z,64.69
2023-01-29T13:38:24.652Z,64.02
2023-01-29T13:40:53.653Z,64.85
2023-01-29T13:43:23.951Z,64.73
2023-01-29T13:45:54.126Z,64.46
2023-01-29T13:48:27.447Z,65.14
2023-01-29T13:50:57.349Z,64.60
2023-01-29T13:53:28.346Z,65.14
2023-01-29T13:55:56.375Z,64.98
2023-01-29T13:58:54.292Z,64.86
2023-01-29T14:01:55.634Z,64.78
2023-01-29T14:04:28.368Z,64.76
2023-01-29T14:06:56.626Z,64.75
2023-01-29T14:10:02.968Z,64.04
2023-01-29T14:12:38.160Z,64.99
2023-01-29T14:15:20.678Z,64.72
2023-01-29T14:17:59.583Z,64.97
2023-01-29T14:20:45.088Z,64.93
2023-01-29T14:23:25.036Z,64.93
2023-01-29T14:25:52.801Z,64.79
2023-01-29T14:28:24.892Z,64.75
2023-01-29T14:30:53.650Z,65.35
2023-01-29T14:33:28.789Z,64.94
2023-01-29T14:36:00.665Z,65.44
2023-01-29T14:38:30.401Z,65.02
2023-01-29T14:41:16.165Z,65.17
2023-01-29T14:43:43.809Z,65.09
2023-01-29T14:46:48.040Z,64.88
2023-01-29T14:49:52.061Z,64.78
2023-01-29T14:52:24.080Z,65.15
2023-01-29T14:54:53.728Z,65.09
2023-01-29T14:57:21.798Z,65.16
2023-01-29T14:59:55.149Z,65.43
2023-01-29T15:02:27.667Z,65.87
2023-01-29T15:04:59.584Z,66.23
2023-01-29T15:07:36.317Z,66.06
2023-01-29T15:10:23.467Z,66.24
2023-01-29T15:12:58.123Z,66.37
2023-01-29T15:15:34.950Z,66.81
2023-01-29T15:18:06.735Z,66.39
2023-01-29T15:20:36.495Z,66.93
2023-01-29T15:23:24.558Z,67.61
2023-01-29T15:25:54.017Z,67.13
2023-01-29T15:28:22.641Z,67.82
2023-01-29T15:30:55.035Z,67.55
2023-01-29T15:33:22.937Z,67.94
2023-01-29T15:36:06.718Z,67.80
2023-01-29T15:38:36.890Z,68.20
2023-01-29T15:41:17.060Z,68.27
2023-01-29T15:43:46.603Z,68.41
2023-01-29T15:46:21.993Z,69.20
2023-01-29T15:48:50.880Z,68.78
2023-01-29T15:51:21.349Z,68.96
2023-01-29T15:53:53.776Z,68.87
2023-01-29T15:56:27.747Z,68.99
2023-01-29T15:58:58.161Z,68.95
2023-01-29T16:01:27.555Z,69.33
2023-01-29T16:03:57.782Z,69.73
2023-01-29T16:06:27.034Z,69.71
2023-01-29T16:08:56.659Z,69.63
2023-01-29T16:11:24.478Z,69.61
2023-01-29T16:13:53.210Z,69.98
2023-01-29T16:16:24.952Z,70.33
2023-01-29T16:18:59.832Z,70.22
2023-01-29T16:21:30.462Z,70.42
2023-01-29T16:24:01.949Z,70.03
2023-01-29T16:26:32.912Z,70.55
2023-01-29T16:29:05.370Z,70.81
2023-01-29T16:31:34.014Z,70.55
2023-01-29T16:34:07.994Z,70.83
2023-01-29T16:36:35.791Z,70.67
2023-01-29T16:39:14.300Z,71.05
2023-01-29T16:41:41.951Z,70.91
2023-01-29T16:44:33.763Z,71.17
2023-01-29T16:47:12.669Z,70.90
2023-01-29T16:49:45.316Z,71.20
2023-01-29T16:52:21.551Z,71.01
2023-01-29T16:54:50.955Z,71.01
2023-01-29T16:57:23.028Z,70.88
2023-01-29T16:59:55.110Z,70.67
2023-01-29T17:02:26.934Z,70.43
2023-01-29T17:04:59.417Z,70.59
2023-01-29T17:07:28.366Z,71.63
2023-01-29T17:10:00.921Z,70.80
2023-01-29T17:12:30.904Z,70.82
2023-01-29T17:15:00.540Z,71.21
2023-01-29T17:17:33.488Z,70.71
2023-01-29T17:20:12.336Z,72.07
2023-01-29T17:22:40.063Z,70.81
2023-01-29T17:25:13.933Z,71.05
2023-01-29T17:27:44.115Z,70.70
2023-01-29T17:30:18.423Z,71.30
2023-01-29T17:32:47.431Z,71.36
2023-01-29T17:35:17.141Z,70.68
2023-01-29T17:37:47.547Z,70.90
2023-01-29T17:40:32.193Z,71.63
2023-01-29T17:43:02.011Z,71.81
2023-01-29T17:45:29.856Z,72.63
2023-01-29T17:48:00.071Z,72.83
2023-01-29T17:50:31.182Z,72.76
2023-01-29T17:52:58.989Z,72.64
2023-01-29T17:55:27.990Z,72.73
2023-01-29T17:57:55.634Z,75.53
2023-01-29T18:00:33.049Z,74.97
2023-01-29T18:03:02.350Z,76.45
2023-01-29T18:05:32.667Z,76.31
2023-01-29T18:08:00.297Z,76.54
2023-01-29T18:10:32.281Z,77.80
2023-01-29T18:12:59.977Z,77.94
2023-01-29T18:15:27.611Z,78.02
2023-01-29T18:17:56.366Z,78.22
2023-01-29T18:20:25.806Z,78.22
2023-01-29T18:22:54.112Z,78.72
2023-01-29T18:25:24.090Z,78.81
2023-01-29T18:27:55.112Z,79.24
2023-01-29T18:30:22.805Z,80.53
2023-01-29T18:32:50.751Z,79.82
2023-01-29T18:35:24.762Z,79.73
2023-01-29T18:37:57.179Z,80.27
2023-01-29T18:40:25.542Z,80.95
2023-01-29T18:42:54.500Z,81.10
2023-01-29T18:45:24.649Z,80.55
2023-01-29T18:48:01.036Z,80.65
2023-01-29T18:50:29.080Z,81.17
2023-01-29T18:52:56.817Z,80.67
2023-01-29T18:55:26.420Z,80.69
2023-01-29T18:58:27.787Z,81.24
2023-01-29T19:00:43.689Z,81.44
2023-01-29T19:03:12.055Z,80.84
2023-01-29T19:05:39.835Z,80.84
2023-01-29T19:08:07.432Z,80.72
2023-01-29T19:10:35.682Z,80.42
2023-01-29T19:13:06.550Z,79.95
2023-01-29T19:15:34.372Z,80.62
2023-01-29T19:18:02.611Z,80.37
2023-01-29T19:20:32.947Z,80.61
2023-01-29T19:23:00.572Z,80.11
2023-01-29T19:25:28.204Z,81.11
2023-01-29T19:28:00.636Z,80.80
2023-01-29T19:30:31.042Z,81.37
2023-01-29T19:32:58.709Z,80.99
2023-01-29T19:35:26.562Z,81.55
2023-01-29T19:38:00.039Z,80.72
2023-01-29T19:40:27.815Z,81.14
2023-01-29T19:42:56.388Z,80.70
2023-01-29T19:45:49.060Z,80.53
2023-01-29T19:48:15.784Z,80.41
2023-01-29T19:50:52.459Z,81.19
2023-01-29T19:53:20.221Z,80.32
2023-01-29T19:55:48.220Z,80.14
2023-01-29T19:58:15.823Z,80.06
2023-01-29T20:00:43.517Z,80.71
2023-01-29T20:03:15.309Z,79.86
2023-01-29T20:05:42.908Z,80.36
2023-01-29T20:08:12.457Z,80.05
2023-01-29T20:10:40.106Z,79.90
2023-01-29T20:13:09.429Z,79.77
2023-01-29T20:15:37.072Z,80.11
2023-01-29T20:18:11.686Z,79.70
2023-01-29T20:20:49.962Z,79.76
2023-01-29T20:23:35.281Z,79.56
2023-01-29T20:26:05.609Z,79.75
2023-01-29T20:28:36.118Z,79.73
2023-01-29T20:31:09.802Z,79.45
2023-01-29T20:33:39.504Z,79.81
2023-01-29T20:36:11.269Z,79.49
2023-01-29T20:38:39.200Z,79.89
2023-01-29T20:41:08.684Z,79.94
2023-01-29T20:43:36.867Z,79.86
2023-01-29T20:46:05.201Z,79.68
2023-01-29T20:48:33.519Z,79.75
2023-01-29T20:51:09.301Z,79.34
2023-01-29T20:54:19.784Z,79.63
2023-01-29T20:56:47.505Z,79.19
2023-01-29T20:59:15.435Z,79.78
2023-01-29T21:01:45.488Z,79.78
2023-01-29T21:04:14.880Z,79.51
2023-01-29T21:06:42.491Z,79.43
2023-01-29T21:09:10.106Z,79.42
2023-01-29T21:11:44.828Z,79.41
2023-01-29T21:14:12.591Z,79.22
2023-01-29T21:16:40.312Z,79.26
2023-01-29T21:19:07.969Z,79.02
2023-01-29T21:21:35.722Z,78.98
2023-01-29T21:24:05.748Z,79.39
2023-01-29T21:26:38.099Z,79.28
2023-01-29T21:29:07.408Z,79.44
2023-01-29T21:31:35.086Z,79.59
2023-01-29T21:34:04.617Z,78.97
2023-01-29T21:36:32.290Z,79.27
2023-01-29T21:39:00.211Z,78.80
2023-01-29T21:41:42.092Z,79.09
2023-01-29T21:44:11.583Z,78.61
2023-01-29T21:46:39.271Z,78.99
2023-01-29T21:49:06.993Z,78.92
2023-01-29T21:51:38.652Z,79.09
2023-01-29T21:54:09.002Z,78.91
2023-01-29T21:56:36.611Z,79.10
2023-01-29T21:59:04.312Z,79.22
2023-01-29T22:01:37.883Z,78.60
2023-01-29T22:04:09.663Z,79.08
2023-01-29T22:06:37.415Z,78.75
2023-01-29T22:09:05.161Z,78.93
2023-01-29T22:11:33.031Z,78.95
2023-01-29T22:14:00.716Z,78.91
2023-01-29T22:16:29.761Z,79.14
2023-01-29T22:18:58.997Z,78.76
2023-01-29T22:21:28.493Z,79.16
2023-01-29T22:23:56.194Z,78.78
2023-01-29T22:26:23.954Z,78.90
2023-01-29T22:28:51.577Z,78.52
2023-01-29T22:31:19.259Z,78.92
2023-01-29T22:33:48.859Z,78.51
2023-01-29T22:36:17.865Z,78.88
2023-01-29T22:38:45.936Z,78.86
2023-01-29T22:41:14.466Z,78.83
2023-01-29T22:43:43.819Z,78.83
2023-01-29T22:46:14.275Z,78.73
2023-01-29T22:48:44.690Z,78.96
2023-01-29T22:51:13.825Z,78.95
2023-01-29T22:53:44.553Z,78.58
2023-01-29T22:56:12.881Z,78.60
2023-01-29T22:58:41.056Z,78.55
2023-01-29T23:01:09.046Z,79.21
2023-01-29T23:03:38.499Z,78.55
2023-01-29T23:06:06.277Z,78.80
2023-01-29T23:08:34.436Z,78.98
2023-01-29T23:11:14.963Z,78.94
2023-01-29T23:13:44.234Z,79.00
2023-01-29T23:16:12.412Z,79.42
2023-01-29T23:18:40.604Z,79.49
2023-01-29T23:21:08.482Z,79.18
2023-01-29T23:23:37.364Z,79.44
2023-01-29T23:26:28.852Z,79.65
2023-01-29T23:28:56.518Z,79.51
2023-01-29T23:31:24.197Z,80.04
2023-01-29T23:33:51.978Z,79.59
2023-01-29T23:36:19.642Z,79.82
2023-01-29T23:38:47.290Z,79.66
2023-01-29T23:41:16.260Z,79.86
2023-01-29T23:43:43.900Z,79.76
2023-01-29T23:46:11.548Z,79.98
2023-01-29T23:48:41.189Z,80.38
2023-01-29T23:51:08.859Z,80.42
2023-01-29T23:53:36.439Z,80.58
2023-01-29T23:56:05.817Z,80.22
2023-01-29T23:58:35.090Z,80.38
